Gdov, Russia
Current Conditions -  °F | °C
As of 1:50 AM on Friday 21 Nov 2014 (Local Time) from EETU Reporting Station
Overcast Overcast  
Wind Chill: 16°   Ceiling: 400
Heat Index: 25°   Visibility: 6mi
Dew Point: 21°   Wind: 8mph
Humidity: 86%   Direction: 110°ESE
Pressure: 30.45"   Gusts: NA
Location:  58.74°N, 27.81°E
Report Text: EETU 202250Z AUTO 11007KT 9999 OVC004/// M04/M06 Q1031
Loading
Personal Weather Stations






























Interactive Weather Map New forecast layout! Learn more

10-Day Weather Forecast

Advertisements
Track Severe Weather on mobile